Aérodrome :
LOGIN :

S'inscrire | Disclaimer

   EN    FR    IT 

 










Légende :    VFR   VFR Marginal   IFR   IFR Intensif   IFR Très Intensif
Visi : 
Plafond : 
>= 8 km
>= 3000ft
5 à 8 km
1000 à 3000 ft
1500m à 5 km
500 à 1000 ft
800 à 1500m
200 à 500 ft
< 800m
< 200 ft
Symboles :   Orages  Brouillard  Fortes neiges  Fortes précipitations  Vent > 20 kt
SIGMETs :   Divers  Orages  Givrage  Turbulence  Onde Orograph.  Cendres Volcan.







- Altitude de l'aérodrome : 53 ft
- Code IATA : AGP


LEMG - Malaga

DERNIER METAR :
  • 171430Z 13008KT 080V160 9999 SCT022 16/10 Q1023 NOSIG

METARs EXPIRÉS :
  • 171400Z 11008KT 070V150 9999 SCT022 17/10 Q1023 NOSIG
  • 171330Z 11009KT 080V140 9999 SCT022 16/11 Q1023 NOSIG
  • 171300Z 09009KT 060V130 9999 SCT025 17/10 Q1024 NOSIG
  • 171230Z 10011KT 9999 FEW024 SCT036 17/09 Q1024 NOSIG
  • 171200Z 10010KT 060V150 9999 FEW025 SCT040 16/09 Q1025 NOSIG
  • 171130Z 11009KT 070V150 9999 FEW020 SCT040 16/10 Q1025 NOSIG

TAF TAF LEMG
Valide du 17 à 12h jusqu'au 18 à 12h UTC


171100Z 1712/1812 14009KT 9999 SCT015 TX15/1714Z TN09/1807Z
BECMG 1717/1719 VRB03KT
BECMG 1808/1810 14009KT
Pas de NOTAMs connus pour ce terrain.
1 SIGMET publié pour la FIR Madrid (LECM) :
 
Onde orographique forte
LECM SIGMET 4 VALID 171200/171500 LEVA
LECM MADRID FIR/UIR SEV MTW OBS AT 1157Z WI N4335 W00729 - N4220 W00652 - N4257 W00344 - N4334 W00334 - N4335 W00729 SFC/FL300 STNR NC=



MET'MAP, la Météo Aéronautique d'un coup d'oeil ! - Copyright ORBIFLY Décembre 2007 - Disclaimer

ORBIFLY MET'MAP TEAM :

Programmation & Développement : Alexandra Zaïnal
Conception & Développement : Baudouin d'Aumeries
Co-Programmation & Développement : Marc-Olivier Méhu
Soutien technique & logistique : Manuel Goepfert

Contact : metmap@orbifly.com




SOURCES & CREDITS :

   NOAA